sensor_id;sensor_type;location;lat;lon;timestamp;temperature;humidity
51559;DHT22;61650;48.882;2.092;2022-10-29T00:01:39;15.30;92.50
51559;DHT22;61650;48.882;2.092;2022-10-29T00:04:05;15.30;92.80
51559;DHT22;61650;48.882;2.092;2022-10-29T00:06:31;15.40;92.50
51559;DHT22;61650;48.882;2.092;2022-10-29T00:08:56;15.40;92.10
51559;DHT22;61650;48.882;2.092;2022-10-29T00:11:22;15.40;92.70
51559;DHT22;61650;48.882;2.092;2022-10-29T00:13:53;15.40;92.70
51559;DHT22;61650;48.882;2.092;2022-10-29T00:16:21;15.40;92.70
51559;DHT22;61650;48.882;2.092;2022-10-29T00:18:47;15.40;92.50
51559;DHT22;61650;48.882;2.092;2022-10-29T00:21:15;15.40;93.00
51559;DHT22;61650;48.882;2.092;2022-10-29T00:23:42;15.40;92.70
51559;DHT22;61650;48.882;2.092;2022-10-29T00:26:07;15.50;92.40
51559;DHT22;61650;48.882;2.092;2022-10-29T00:28:33;15.50;92.40
51559;DHT22;61650;48.882;2.092;2022-10-29T00:31:04;15.50;92.70
51559;DHT22;61650;48.882;2.092;2022-10-29T00:33:30;15.50;93.00
51559;DHT22;61650;48.882;2.092;2022-10-29T00:35:57;15.50;92.70
51559;DHT22;61650;48.882;2.092;2022-10-29T00:38:23;15.50;93.00
51559;DHT22;61650;48.882;2.092;2022-10-29T00:40:49;15.60;93.40
51559;DHT22;61650;48.882;2.092;2022-10-29T00:43:16;15.60;92.90
51559;DHT22;61650;48.882;2.092;2022-10-29T00:45:50;15.60;92.40
51559;DHT22;61650;48.882;2.092;2022-10-29T00:48:17;15.50;93.00
51559;DHT22;61650;48.882;2.092;2022-10-29T00:50:45;15.50;92.90
51559;DHT22;61650;48.882;2.092;2022-10-29T00:53:11;15.50;93.60
51559;DHT22;61650;48.882;2.092;2022-10-29T00:55:37;15.50;94.10
51559;DHT22;61650;48.882;2.092;2022-10-29T00:58:03;15.50;93.80
51559;DHT22;61650;48.882;2.092;2022-10-29T01:00:29;15.50;93.90
51559;DHT22;61650;48.882;2.092;2022-10-29T01:02:54;15.50;94.10
51559;DHT22;61650;48.882;2.092;2022-10-29T01:05:22;15.50;94.10
51559;DHT22;61650;48.882;2.092;2022-10-29T01:07:49;15.40;93.90
51559;DHT22;61650;48.882;2.092;2022-10-29T01:10:15;15.40;94.10
51559;DHT22;61650;48.882;2.092;2022-10-29T01:12:56;15.40;94.20
51559;DHT22;61650;48.882;2.092;2022-10-29T01:15:44;15.50;94.60
51559;DHT22;61650;48.882;2.092;2022-10-29T01:18:19;15.50;94.60
51559;DHT22;61650;48.882;2.092;2022-10-29T01:32:14;15.40;95.60
51559;DHT22;61650;48.882;2.092;2022-10-29T01:34:50;15.40;95.70
51559;DHT22;61650;48.882;2.092;2022-10-29T01:40:25;15.50;95.30
51559;DHT22;61650;48.882;2.092;2022-10-29T01:43:08;15.50;95.30
51559;DHT22;61650;48.882;2.092;2022-10-29T01:45:42;15.50;95.20
51559;DHT22;61650;48.882;2.092;2022-10-29T01:48:15;15.50;95.40
51559;DHT22;61650;48.882;2.092;2022-10-29T01:50:46;15.60;95.00
51559;DHT22;61650;48.882;2.092;2022-10-29T01:53:15;15.50;94.60
51559;DHT22;61650;48.882;2.092;2022-10-29T01:55:41;15.50;94.60
51559;DHT22;61650;48.882;2.092;2022-10-29T01:58:07;15.60;94.60
51559;DHT22;61650;48.882;2.092;2022-10-29T02:09:20;15.60;94.80
51559;DHT22;61650;48.882;2.092;2022-10-29T02:12:01;15.60;94.60
51559;DHT22;61650;48.882;2.092;2022-10-29T02:14:32;15.60;94.40
51559;DHT22;61650;48.882;2.092;2022-10-29T02:17:01;15.50;94.50
51559;DHT22;61650;48.882;2.092;2022-10-29T02:19:31;15.50;94.90
51559;DHT22;61650;48.882;2.092;2022-10-29T02:21:57;15.50;95.10
51559;DHT22;61650;48.882;2.092;2022-10-29T02:24:23;15.50;95.10
51559;DHT22;61650;48.882;2.092;2022-10-29T02:26:52;15.50;95.10
51559;DHT22;61650;48.882;2.092;2022-10-29T02:29:18;15.50;94.70
51559;DHT22;61650;48.882;2.092;2022-10-29T02:31:44;15.40;95.10
51559;DHT22;61650;48.882;2.092;2022-10-29T02:34:10;15.40;95.30
51559;DHT22;61650;48.882;2.092;2022-10-29T02:36:35;15.40;95.10
51559;DHT22;61650;48.882;2.092;2022-10-29T02:39:01;15.40;95.00
51559;DHT22;61650;48.882;2.092;2022-10-29T02:41:27;15.40;94.90
51559;DHT22;61650;48.882;2.092;2022-10-29T02:43:52;15.40;94.80
51559;DHT22;61650;48.882;2.092;2022-10-29T02:46:22;15.40;95.10
51559;DHT22;61650;48.882;2.092;2022-10-29T02:48:48;15.40;95.00
51559;DHT22;61650;48.882;2.092;2022-10-29T02:51:15;15.40;94.90
51559;DHT22;61650;48.882;2.092;2022-10-29T02:53:41;15.40;94.80
51559;DHT22;61650;48.882;2.092;2022-10-29T02:56:07;15.40;94.80
51559;DHT22;61650;48.882;2.092;2022-10-29T02:58:33;15.30;94.80
51559;DHT22;61650;48.882;2.092;2022-10-29T03:00:59;15.30;95.10
51559;DHT22;61650;48.882;2.092;2022-10-29T03:03:25;15.30;94.90
51559;DHT22;61650;48.882;2.092;2022-10-29T03:05:51;15.30;95.30
51559;DHT22;61650;48.882;2.092;2022-10-29T03:08:16;15.30;95.30
51559;DHT22;61650;48.882;2.092;2022-10-29T03:10:42;15.20;95.00
51559;DHT22;61650;48.882;2.092;2022-10-29T03:13:08;15.30;94.60
51559;DHT22;61650;48.882;2.092;2022-10-29T03:15:35;15.20;94.90
51559;DHT22;61650;48.882;2.092;2022-10-29T03:18:00;15.20;95.10
51559;DHT22;61650;48.882;2.092;2022-10-29T03:20:26;15.20;94.80
51559;DHT22;61650;48.882;2.092;2022-10-29T03:22:52;15.20;95.00
51559;DHT22;61650;48.882;2.092;2022-10-29T03:25:17;15.20;95.30
51559;DHT22;61650;48.882;2.092;2022-10-29T03:27:44;15.20;95.50
51559;DHT22;61650;48.882;2.092;2022-10-29T03:30:10;15.20;95.30
51559;DHT22;61650;48.882;2.092;2022-10-29T03:32:43;15.20;94.80
51559;DHT22;61650;48.882;2.092;2022-10-29T03:35:10;15.10;94.60
51559;DHT22;61650;48.882;2.092;2022-10-29T03:37:36;15.10;94.80
51559;DHT22;61650;48.882;2.092;2022-10-29T03:40:02;15.10;95.10
51559;DHT22;61650;48.882;2.092;2022-10-29T03:42:28;15.10;95.10
51559;DHT22;61650;48.882;2.092;2022-10-29T03:44:59;15.10;94.90
51559;DHT22;61650;48.882;2.092;2022-10-29T03:47:26;15.00;94.90
51559;DHT22;61650;48.882;2.092;2022-10-29T03:49:52;15.00;94.70
51559;DHT22;61650;48.882;2.092;2022-10-29T03:52:18;14.90;94.50
51559;DHT22;61650;48.882;2.092;2022-10-29T03:54:43;14.90;95.00
51559;DHT22;61650;48.882;2.092;2022-10-29T03:57:09;14.90;95.00
51559;DHT22;61650;48.882;2.092;2022-10-29T03:59:34;14.80;95.00
51559;DHT22;61650;48.882;2.092;2022-10-29T04:02:00;14.90;95.40
51559;DHT22;61650;48.882;2.092;2022-10-29T04:04:26;14.80;95.30
51559;DHT22;61650;48.882;2.092;2022-10-29T04:06:51;14.80;95.60
51559;DHT22;61650;48.882;2.092;2022-10-29T04:09:17;14.90;95.50
51559;DHT22;61650;48.882;2.092;2022-10-29T04:11:42;14.80;94.90
51559;DHT22;61650;48.882;2.092;2022-10-29T04:14:08;14.80;95.00
51559;DHT22;61650;48.882;2.092;2022-10-29T04:16:33;14.80;94.90
51559;DHT22;61650;48.882;2.092;2022-10-29T04:18:59;14.70;94.60
51559;DHT22;61650;48.882;2.092;2022-10-29T04:21:25;14.70;94.70
51559;DHT22;61650;48.882;2.092;2022-10-29T04:23:50;14.70;94.90
51559;DHT22;61650;48.882;2.092;2022-10-29T04:26:17;14.60;95.00
51559;DHT22;61650;48.882;2.092;2022-10-29T04:28:43;14.60;95.30
51559;DHT22;61650;48.882;2.092;2022-10-29T04:31:12;14.70;95.30
51559;DHT22;61650;48.882;2.092;2022-10-29T04:33:38;14.70;94.70
51559;DHT22;61650;48.882;2.092;2022-10-29T04:36:03;14.70;94.90
51559;DHT22;61650;48.882;2.092;2022-10-29T04:38:29;14.60;94.90
51559;DHT22;61650;48.882;2.092;2022-10-29T04:40:59;14.60;95.00
51559;DHT22;61650;48.882;2.092;2022-10-29T04:43:25;14.60;94.90
51559;DHT22;61650;48.882;2.092;2022-10-29T04:45:56;14.60;95.00
51559;DHT22;61650;48.882;2.092;2022-10-29T04:48:23;14.60;95.20
51559;DHT22;61650;48.882;2.092;2022-10-29T04:50:49;14.60;94.90
51559;DHT22;61650;48.882;2.092;2022-10-29T04:53:15;14.60;94.90
51559;DHT22;61650;48.882;2.092;2022-10-29T04:55:42;14.60;95.20
51559;DHT22;61650;48.882;2.092;2022-10-29T04:58:12;14.60;95.00
51559;DHT22;61650;48.882;2.092;2022-10-29T05:00:39;14.60;94.80
51559;DHT22;61650;48.882;2.092;2022-10-29T05:03:04;14.60;94.90
51559;DHT22;61650;48.882;2.092;2022-10-29T05:05:30;14.60;94.70
51559;DHT22;61650;48.882;2.092;2022-10-29T05:07:57;14.50;94.90
51559;DHT22;61650;48.882;2.092;2022-10-29T05:10:29;14.60;95.00
51559;DHT22;61650;48.882;2.092;2022-10-29T05:13:03;14.50;94.70
51559;DHT22;61650;48.882;2.092;2022-10-29T05:15:29;14.40;94.60
51559;DHT22;61650;48.882;2.092;2022-10-29T05:17:55;14.40;95.10
51559;DHT22;61650;48.882;2.092;2022-10-29T05:20:22;14.40;94.80
51559;DHT22;61650;48.882;2.092;2022-10-29T05:22:48;14.30;95.00
51559;DHT22;61650;48.882;2.092;2022-10-29T05:25:14;14.30;95.30
51559;DHT22;61650;48.882;2.092;2022-10-29T05:27:40;14.30;95.20
51559;DHT22;61650;48.882;2.092;2022-10-29T05:30:06;14.40;94.80
51559;DHT22;61650;48.882;2.092;2022-10-29T05:32:31;14.40;94.60
51559;DHT22;61650;48.882;2.092;2022-10-29T05:34:57;14.30;94.30
51559;DHT22;61650;48.882;2.092;2022-10-29T05:37:23;14.30;94.40
51559;DHT22;61650;48.882;2.092;2022-10-29T05:39:52;14.20;94.60
51559;DHT22;61650;48.882;2.092;2022-10-29T05:42:18;14.20;94.40
51559;DHT22;61650;48.882;2.092;2022-10-29T05:44:44;14.10;94.80
51559;DHT22;61650;48.882;2.092;2022-10-29T05:47:09;14.10;95.00
51559;DHT22;61650;48.882;2.092;2022-10-29T05:49:35;14.10;95.10
51559;DHT22;61650;48.882;2.092;2022-10-29T05:52:01;14.20;95.20
51559;DHT22;61650;48.882;2.092;2022-10-29T05:54:26;14.20;94.80
51559;DHT22;61650;48.882;2.092;2022-10-29T05:56:52;14.10;94.40
51559;DHT22;61650;48.882;2.092;2022-10-29T05:59:17;14.00;94.80
51559;DHT22;61650;48.882;2.092;2022-10-29T06:01:43;14.10;94.90
51559;DHT22;61650;48.882;2.092;2022-10-29T06:04:08;14.00;94.80
51559;DHT22;61650;48.882;2.092;2022-10-29T06:06:34;14.00;94.90
51559;DHT22;61650;48.882;2.092;2022-10-29T06:08:59;14.00;94.80
51559;DHT22;61650;48.882;2.092;2022-10-29T06:11:25;14.10;94.90
51559;DHT22;61650;48.882;2.092;2022-10-29T06:13:54;14.10;94.10
51559;DHT22;61650;48.882;2.092;2022-10-29T06:16:20;14.00;94.40
51559;DHT22;61650;48.882;2.092;2022-10-29T06:18:45;14.00;94.70
51559;DHT22;61650;48.882;2.092;2022-10-29T06:21:11;13.90;94.50
51559;DHT22;61650;48.882;2.092;2022-10-29T06:23:37;13.90;94.80
51559;DHT22;61650;48.882;2.092;2022-10-29T06:26:02;13.80;95.20
51559;DHT22;61650;48.882;2.092;2022-10-29T06:28:28;13.90;95.20
51559;DHT22;61650;48.882;2.092;2022-10-29T06:30:54;14.00;94.90
51559;DHT22;61650;48.882;2.092;2022-10-29T06:33:20;13.90;94.20
51559;DHT22;61650;48.882;2.092;2022-10-29T06:35:46;13.90;94.50
51559;DHT22;61650;48.882;2.092;2022-10-29T06:38:12;13.80;94.00
51559;DHT22;61650;48.882;2.092;2022-10-29T06:40:39;13.80;94.50
51559;DHT22;61650;48.882;2.092;2022-10-29T06:43:08;13.90;94.70
51559;DHT22;61650;48.882;2.092;2022-10-29T06:45:34;13.90;94.30
51559;DHT22;61650;48.882;2.092;2022-10-29T06:48:00;13.90;93.90
51559;DHT22;61650;48.882;2.092;2022-10-29T06:50:27;13.80;93.90
51559;DHT22;61650;48.882;2.092;2022-10-29T06:53:00;13.90;94.40
51559;DHT22;61650;48.882;2.092;2022-10-29T06:55:26;13.90;94.20
51559;DHT22;61650;48.882;2.092;2022-10-29T06:58:13;13.90;94.40
51559;DHT22;61650;48.882;2.092;2022-10-29T07:00:39;14.00;94.20
51559;DHT22;61650;48.882;2.092;2022-10-29T07:03:05;13.90;93.90
51559;DHT22;61650;48.882;2.092;2022-10-29T07:05:32;13.90;93.90
51559;DHT22;61650;48.882;2.092;2022-10-29T07:07:59;13.90;94.10
51559;DHT22;61650;48.882;2.092;2022-10-29T07:10:27;14.00;94.00
51559;DHT22;61650;48.882;2.092;2022-10-29T07:12:53;14.00;94.50
51559;DHT22;61650;48.882;2.092;2022-10-29T07:15:19;14.00;94.30
51559;DHT22;61650;48.882;2.092;2022-10-29T07:17:57;14.00;94.20
51559;DHT22;61650;48.882;2.092;2022-10-29T07:20:24;14.00;94.40
51559;DHT22;61650;48.882;2.092;2022-10-29T07:22:50;14.10;94.70
51559;DHT22;61650;48.882;2.092;2022-10-29T07:25:16;14.10;94.50
51559;DHT22;61650;48.882;2.092;2022-10-29T07:27:41;14.10;94.40
51559;DHT22;61650;48.882;2.092;2022-10-29T07:30:07;14.10;94.00
51559;DHT22;61650;48.882;2.092;2022-10-29T07:32:33;14.20;94.00
51559;DHT22;61650;48.882;2.092;2022-10-29T07:34:58;14.20;94.10
51559;DHT22;61650;48.882;2.092;2022-10-29T07:37:24;14.10;94.20
51559;DHT22;61650;48.882;2.092;2022-10-29T07:39:49;14.20;94.40
51559;DHT22;61650;48.882;2.092;2022-10-29T07:42:15;14.20;94.00
51559;DHT22;61650;48.882;2.092;2022-10-29T07:44:41;14.20;94.30
51559;DHT22;61650;48.882;2.092;2022-10-29T07:47:06;14.20;94.20
51559;DHT22;61650;48.882;2.092;2022-10-29T07:49:32;14.30;94.40
51559;DHT22;61650;48.882;2.092;2022-10-29T07:51:57;14.30;94.30
51559;DHT22;61650;48.882;2.092;2022-10-29T07:54:23;14.30;94.30
51559;DHT22;61650;48.882;2.092;2022-10-29T07:56:51;14.30;94.40
51559;DHT22;61650;48.882;2.092;2022-10-29T07:59:16;14.30;94.40
51559;DHT22;61650;48.882;2.092;2022-10-29T08:01:43;14.30;94.60
51559;DHT22;61650;48.882;2.092;2022-10-29T08:04:09;14.30;94.50
51559;DHT22;61650;48.882;2.092;2022-10-29T08:06:35;14.30;94.40
51559;DHT22;61650;48.882;2.092;2022-10-29T08:09:00;14.40;94.50
51559;DHT22;61650;48.882;2.092;2022-10-29T08:11:26;14.40;94.40
51559;DHT22;61650;48.882;2.092;2022-10-29T08:13:51;14.40;94.40
51559;DHT22;61650;48.882;2.092;2022-10-29T08:16:18;14.50;94.30
51559;DHT22;61650;48.882;2.092;2022-10-29T08:18:43;14.50;94.20
51559;DHT22;61650;48.882;2.092;2022-10-29T08:21:09;14.60;94.00
51559;DHT22;61650;48.882;2.092;2022-10-29T08:23:35;14.70;93.90
51559;DHT22;61650;48.882;2.092;2022-10-29T08:26:00;14.70;93.90
51559;DHT22;61650;48.882;2.092;2022-10-29T08:28:27;14.80;93.60
51559;DHT22;61650;48.882;2.092;2022-10-29T08:30:52;14.80;93.60
51559;DHT22;61650;48.882;2.092;2022-10-29T08:33:18;14.90;93.60
51559;DHT22;61650;48.882;2.092;2022-10-29T08:35:45;15.00;93.60
51559;DHT22;61650;48.882;2.092;2022-10-29T08:38:12;15.10;93.20
51559;DHT22;61650;48.882;2.092;2022-10-29T08:46:43;15.30;91.70
51559;DHT22;61650;48.882;2.092;2022-10-29T08:52:08;15.60;89.30
51559;DHT22;61650;48.882;2.092;2022-10-29T08:54:37;15.70;88.80
51559;DHT22;61650;48.882;2.092;2022-10-29T08:57:14;15.80;88.70
51559;DHT22;61650;48.882;2.092;2022-10-29T08:59:49;15.90;89.00
51559;DHT22;61650;48.882;2.092;2022-10-29T09:02:21;16.00;87.50
51559;DHT22;61650;48.882;2.092;2022-10-29T09:04:46;16.10;85.70
51559;DHT22;61650;48.882;2.092;2022-10-29T09:07:40;16.20;86.30
51559;DHT22;61650;48.882;2.092;2022-10-29T09:10:29;16.20;86.90
51559;DHT22;61650;48.882;2.092;2022-10-29T09:18:39;16.30;87.60
51559;DHT22;61650;48.882;2.092;2022-10-29T09:21:36;16.40;87.60
51559;DHT22;61650;48.882;2.092;2022-10-29T09:29:39;16.60;86.70
51559;DHT22;61650;48.882;2.092;2022-10-29T09:37:14;16.90;86.20
51559;DHT22;61650;48.882;2.092;2022-10-29T09:39:41;17.00;85.40
51559;DHT22;61650;48.882;2.092;2022-10-29T09:42:11;17.10;84.80
51559;DHT22;61650;48.882;2.092;2022-10-29T09:47:24;17.30;82.60
51559;DHT22;61650;48.882;2.092;2022-10-29T09:52:34;17.50;81.50
51559;DHT22;61650;48.882;2.092;2022-10-29T09:55:03;17.60;82.30
51559;DHT22;61650;48.882;2.092;2022-10-29T09:57:30;17.60;82.40
51559;DHT22;61650;48.882;2.092;2022-10-29T10:00:00;17.60;82.00
51559;DHT22;61650;48.882;2.092;2022-10-29T10:04:55;17.70;81.10
51559;DHT22;61650;48.882;2.092;2022-10-29T10:07:22;17.70;80.60
51559;DHT22;61650;48.882;2.092;2022-10-29T10:09:58;17.90;78.70
51559;DHT22;61650;48.882;2.092;2022-10-29T10:12:43;18.00;79.20
51559;DHT22;61650;48.882;2.092;2022-10-29T10:20:42;18.10;79.00
51559;DHT22;61650;48.882;2.092;2022-10-29T10:23:18;18.20;78.10
51559;DHT22;61650;48.882;2.092;2022-10-29T10:25:44;18.30;78.30
51559;DHT22;61650;48.882;2.092;2022-10-29T10:28:27;18.40;78.30
51559;DHT22;61650;48.882;2.092;2022-10-29T10:31:14;18.50;77.90
51559;DHT22;61650;48.882;2.092;2022-10-29T10:33:53;18.70;76.80
51559;DHT22;61650;48.882;2.092;2022-10-29T10:36:27;19.00;74.90
51559;DHT22;61650;48.882;2.092;2022-10-29T10:38:55;19.20;71.40
51559;DHT22;61650;48.882;2.092;2022-10-29T10:41:26;19.30;73.30
51559;DHT22;61650;48.882;2.092;2022-10-29T10:43:56;19.30;73.60
51559;DHT22;61650;48.882;2.092;2022-10-29T10:46:34;19.40;73.30
51559;DHT22;61650;48.882;2.092;2022-10-29T10:49:05;19.60;72.70
51559;DHT22;61650;48.882;2.092;2022-10-29T10:51:33;19.70;72.20
51559;DHT22;61650;48.882;2.092;2022-10-29T10:54:03;19.80;72.60
51559;DHT22;61650;48.882;2.092;2022-10-29T10:56:31;20.10;67.70
51559;DHT22;61650;48.882;2.092;2022-10-29T10:59:09;20.40;69.60
51559;DHT22;61650;48.882;2.092;2022-10-29T11:01:40;20.30;68.20
51559;DHT22;61650;48.882;2.092;2022-10-29T11:04:26;20.40;67.30
51559;DHT22;61650;48.882;2.092;2022-10-29T11:06:58;20.50;63.90
51559;DHT22;61650;48.882;2.092;2022-10-29T11:09:42;20.60;66.30
51559;DHT22;61650;48.882;2.092;2022-10-29T11:12:12;20.90;59.10
51559;DHT22;61650;48.882;2.092;2022-10-29T11:17:40;21.10;58.10
51559;DHT22;61650;48.882;2.092;2022-10-29T11:20:25;21.10;60.90
51559;DHT22;61650;48.882;2.092;2022-10-29T11:23:00;21.10;57.30
51559;DHT22;61650;48.882;2.092;2022-10-29T11:25:50;21.10;59.20
51559;DHT22;61650;48.882;2.092;2022-10-29T11:28:32;21.40;58.40
51559;DHT22;61650;48.882;2.092;2022-10-29T11:31:24;21.50;58.30
51559;DHT22;61650;48.882;2.092;2022-10-29T11:33:55;21.50;59.20
51559;DHT22;61650;48.882;2.092;2022-10-29T11:36:23;21.60;58.30
51559;DHT22;61650;48.882;2.092;2022-10-29T11:39:03;21.50;60.40
51559;DHT22;61650;48.882;2.092;2022-10-29T11:41:47;21.50;55.30
51559;DHT22;61650;48.882;2.092;2022-10-29T11:44:16;21.70;53.90
51559;DHT22;61650;48.882;2.092;2022-10-29T11:46:57;21.70;58.50
51559;DHT22;61650;48.882;2.092;2022-10-29T11:52:11;22.10;54.20
51559;DHT22;61650;48.882;2.092;2022-10-29T11:57:38;21.90;56.20
51559;DHT22;61650;48.882;2.092;2022-10-29T12:00:21;21.90;57.60
51559;DHT22;61650;48.882;2.092;2022-10-29T12:08:05;21.60;59.80
51559;DHT22;61650;48.882;2.092;2022-10-29T12:13:32;21.60;57.30
51559;DHT22;61650;48.882;2.092;2022-10-29T12:16:26;21.70;59.40
51559;DHT22;61650;48.882;2.092;2022-10-29T12:19:31;21.60;59.30
51559;DHT22;61650;48.882;2.092;2022-10-29T12:35:23;21.70;59.90
51559;DHT22;61650;48.882;2.092;2022-10-29T12:40:32;22.20;56.30
51559;DHT22;61650;48.882;2.092;2022-10-29T12:43:09;22.30;55.40
51559;DHT22;61650;48.882;2.092;2022-10-29T12:45:46;22.30;57.90
51559;DHT22;61650;48.882;2.092;2022-10-29T12:48:22;22.30;57.30
51559;DHT22;61650;48.882;2.092;2022-10-29T12:56:35;22.40;56.90
51559;DHT22;61650;48.882;2.092;2022-10-29T13:01:46;22.40;57.50
51559;DHT22;61650;48.882;2.092;2022-10-29T13:04:25;22.30;57.50
51559;DHT22;61650;48.882;2.092;2022-10-29T13:09:44;22.50;55.60
51559;DHT22;61650;48.882;2.092;2022-10-29T13:12:11;22.50;56.20
51559;DHT22;61650;48.882;2.092;2022-10-29T13:14:45;22.40;56.50
51559;DHT22;61650;48.882;2.092;2022-10-29T13:17:33;22.30;57.50
51559;DHT22;61650;48.882;2.092;2022-10-29T13:20:19;22.30;54.80
51559;DHT22;61650;48.882;2.092;2022-10-29T13:30:35;22.80;52.60
51559;DHT22;61650;48.882;2.092;2022-10-29T13:36:00;22.80;49.80
51559;DHT22;61650;48.882;2.092;2022-10-29T13:41:26;22.50;52.20
51559;DHT22;61650;48.882;2.092;2022-10-29T13:44:00;22.40;53.20
51559;DHT22;61650;48.882;2.092;2022-10-29T13:49:43;22.30;53.80
51559;DHT22;61650;48.882;2.092;2022-10-29T13:52:16;22.20;54.20
51559;DHT22;61650;48.882;2.092;2022-10-29T13:54:49;22.10;55.60
51559;DHT22;61650;48.882;2.092;2022-10-29T13:57:32;21.90;55.20
51559;DHT22;61650;48.882;2.092;2022-10-29T14:05:44;21.90;54.60
51559;DHT22;61650;48.882;2.092;2022-10-29T14:13:28;22.00;55.20
51559;DHT22;61650;48.882;2.092;2022-10-29T14:18:36;22.30;54.20
51559;DHT22;61650;48.882;2.092;2022-10-29T14:21:04;23.40;52.00
51559;DHT22;61650;48.882;2.092;2022-10-29T14:23:31;23.70;51.30
51559;DHT22;61650;48.882;2.092;2022-10-29T14:25:59;24.80;49.50
51559;DHT22;61650;48.882;2.092;2022-10-29T14:28:32;25.30;48.90
51559;DHT22;61650;48.882;2.092;2022-10-29T14:31:17;25.10;48.70
51559;DHT22;61650;48.882;2.092;2022-10-29T14:33:57;25.40;47.00
51559;DHT22;61650;48.882;2.092;2022-10-29T14:36:37;25.10;48.70
51559;DHT22;61650;48.882;2.092;2022-10-29T14:39:19;24.50;50.30
51559;DHT22;61650;48.882;2.092;2022-10-29T14:41:47;24.00;51.40
51559;DHT22;61650;48.882;2.092;2022-10-29T14:44:28;23.70;52.10
51559;DHT22;61650;48.882;2.092;2022-10-29T14:47:15;23.50;51.50
51559;DHT22;61650;48.882;2.092;2022-10-29T14:49:46;23.30;49.00
51559;DHT22;61650;48.882;2.092;2022-10-29T14:52:28;23.40;50.90
51559;DHT22;61650;48.882;2.092;2022-10-29T14:55:05;23.20;50.90
51559;DHT22;61650;48.882;2.092;2022-10-29T14:57:33;23.10;50.50
51559;DHT22;61650;48.882;2.092;2022-10-29T15:00:02;23.20;49.90
51559;DHT22;61650;48.882;2.092;2022-10-29T15:02:35;22.90;51.80
51559;DHT22;61650;48.882;2.092;2022-10-29T15:05:02;22.70;53.20
51559;DHT22;61650;48.882;2.092;2022-10-29T15:07:34;22.50;53.70
51559;DHT22;61650;48.882;2.092;2022-10-29T15:10:23;22.30;54.70
51559;DHT22;61650;48.882;2.092;2022-10-29T15:12:51;22.10;56.20
51559;DHT22;61650;48.882;2.092;2022-10-29T15:23:03;21.60;55.50
51559;DHT22;61650;48.882;2.092;2022-10-29T15:25:32;21.60;55.30
51559;DHT22;61650;48.882;2.092;2022-10-29T15:27:59;21.60;55.60
51559;DHT22;61650;48.882;2.092;2022-10-29T15:30:33;21.50;55.20
51559;DHT22;61650;48.882;2.092;2022-10-29T15:33:01;21.40;56.00
51559;DHT22;61650;48.882;2.092;2022-10-29T15:35:28;21.20;55.60
51559;DHT22;61650;48.882;2.092;2022-10-29T15:37:54;21.30;55.20
51559;DHT22;61650;48.882;2.092;2022-10-29T15:40:23;21.20;55.30
51559;DHT22;61650;48.882;2.092;2022-10-29T15:42:49;21.20;54.70
51559;DHT22;61650;48.882;2.092;2022-10-29T15:47:47;20.90;56.20
51559;DHT22;61650;48.882;2.092;2022-10-29T15:50:21;20.70;56.60
51559;DHT22;61650;48.882;2.092;2022-10-29T15:52:57;20.70;55.50
51559;DHT22;61650;48.882;2.092;2022-10-29T15:55:28;20.80;55.60
51559;DHT22;61650;48.882;2.092;2022-10-29T15:58:15;20.70;56.10
51559;DHT22;61650;48.882;2.092;2022-10-29T16:00:41;20.60;55.00
51559;DHT22;61650;48.882;2.092;2022-10-29T16:05:40;20.60;56.80
51559;DHT22;61650;48.882;2.092;2022-10-29T16:08:08;20.50;56.40
51559;DHT22;61650;48.882;2.092;2022-10-29T16:10:39;20.40;57.40
51559;DHT22;61650;48.882;2.092;2022-10-29T16:13:06;20.20;58.20
51559;DHT22;61650;48.882;2.092;2022-10-29T16:15:33;20.00;58.60
51559;DHT22;61650;48.882;2.092;2022-10-29T16:17:58;19.80;59.10
51559;DHT22;61650;48.882;2.092;2022-10-29T16:20:24;19.80;59.10
51559;DHT22;61650;48.882;2.092;2022-10-29T16:22:49;19.70;59.70
51559;DHT22;61650;48.882;2.092;2022-10-29T16:25:23;19.60;60.20
51559;DHT22;61650;48.882;2.092;2022-10-29T16:27:49;19.50;60.70
51559;DHT22;61650;48.882;2.092;2022-10-29T16:30:15;19.40;60.60
51559;DHT22;61650;48.882;2.092;2022-10-29T16:32:42;19.50;60.10
51559;DHT22;61650;48.882;2.092;2022-10-29T16:35:22;19.40;60.90
51559;DHT22;61650;48.882;2.092;2022-10-29T16:37:48;19.30;61.30
51559;DHT22;61650;48.882;2.092;2022-10-29T16:40:15;19.30;61.20
51559;DHT22;61650;48.882;2.092;2022-10-29T16:42:41;19.30;60.90
51559;DHT22;61650;48.882;2.092;2022-10-29T16:45:12;19.30;60.50
51559;DHT22;61650;48.882;2.092;2022-10-29T16:47:38;19.20;61.70
51559;DHT22;61650;48.882;2.092;2022-10-29T16:50:04;18.90;63.00
51559;DHT22;61650;48.882;2.092;2022-10-29T16:52:30;18.80;63.10
51559;DHT22;61650;48.882;2.092;2022-10-29T16:54:55;18.70;63.60
51559;DHT22;61650;48.882;2.092;2022-10-29T16:57:21;18.60;63.90
51559;DHT22;61650;48.882;2.092;2022-10-29T16:59:48;18.40;64.30
51559;DHT22;61650;48.882;2.092;2022-10-29T17:02:13;18.30;64.90
51559;DHT22;61650;48.882;2.092;2022-10-29T17:04:39;18.30;64.90
51559;DHT22;61650;48.882;2.092;2022-10-29T17:07:04;18.30;64.80
51559;DHT22;61650;48.882;2.092;2022-10-29T17:09:30;18.20;65.30
51559;DHT22;61650;48.882;2.092;2022-10-29T17:12:00;18.10;65.80
51559;DHT22;61650;48.882;2.092;2022-10-29T17:14:25;18.10;65.80
51559;DHT22;61650;48.882;2.092;2022-10-29T17:16:51;18.10;65.50
51559;DHT22;61650;48.882;2.092;2022-10-29T17:19:17;18.10;65.80
51559;DHT22;61650;48.882;2.092;2022-10-29T17:21:42;18.00;66.40
51559;DHT22;61650;48.882;2.092;2022-10-29T17:24:08;17.80;67.10
51559;DHT22;61650;48.882;2.092;2022-10-29T17:26:33;17.80;66.70
51559;DHT22;61650;48.882;2.092;2022-10-29T17:28:59;17.80;66.80
51559;DHT22;61650;48.882;2.092;2022-10-29T17:31:24;17.80;66.90
51559;DHT22;61650;48.882;2.092;2022-10-29T17:33:51;17.70;66.90
51559;DHT22;61650;48.882;2.092;2022-10-29T17:36:17;17.50;67.80
51559;DHT22;61650;48.882;2.092;2022-10-29T17:38:43;17.30;68.00
51559;DHT22;61650;48.882;2.092;2022-10-29T17:41:09;17.20;68.60
51559;DHT22;61650;48.882;2.092;2022-10-29T17:43:35;17.10;69.00
51559;DHT22;61650;48.882;2.092;2022-10-29T17:46:01;17.00;69.30
51559;DHT22;61650;48.882;2.092;2022-10-29T17:48:26;16.90;70.00
51559;DHT22;61650;48.882;2.092;2022-10-29T17:50:57;16.90;70.00
51559;DHT22;61650;48.882;2.092;2022-10-29T17:53:23;16.80;70.30
51559;DHT22;61650;48.882;2.092;2022-10-29T17:55:49;16.70;70.60
51559;DHT22;61650;48.882;2.092;2022-10-29T17:58:16;16.70;70.80
51559;DHT22;61650;48.882;2.092;2022-10-29T18:00:41;16.70;71.00
51559;DHT22;61650;48.882;2.092;2022-10-29T18:03:07;16.70;71.00
51559;DHT22;61650;48.882;2.092;2022-10-29T18:05:33;16.70;70.90
51559;DHT22;61650;48.882;2.092;2022-10-29T18:07:58;16.70;71.00
51559;DHT22;61650;48.882;2.092;2022-10-29T18:10:24;16.60;71.20
51559;DHT22;61650;48.882;2.092;2022-10-29T18:12:50;16.50;71.30